Del Rio International Airport Del Rio US
ICAO: KDRT
IATA: DRT
Category: Medium
Scheduled Services: No

Elevation: 1002 ft
TransAlt. 18000 ft.

Airport Communications:
APP:119.6
ASOS:118.525
CLNC DEL:120.5
DEP:119.6
SAN ANGELO RDO:122.3
CTAF/UNICOM:122.8

KDRT Zoom In..

Runways:

(A) RW 13 length 6300 ft width 100 ft
ILS 111.90 / hdg 132

(B) RW 31 length 6300 ft width 100 ft
---- / hdg 312

Location; KDRT
Day. 03 / Time. 10.53 Zulu
* Altimeter: 29.97
* Temperature: 26° c. 78.8°f.
* Wind from: VRB° Speed 03 kn.
Dewpoint: 18° c.
Visibility: 10 Statute Miles.
Clouds: Clear (automated report).

KDRT 031053Z AUTO VRB03KT 10SM CLR 26/18 A2997 RMK AO2 SLP129 T02610183

Going to: --> -->


Wind From VRB°
Speed 03 kn.

 
 
jpsmedia worldairports.se 2020   terms of use